sensor_id;sensor_type;location;lat;lon;timestamp;pressure;altitude;pressure_sealevel;temperature;humidity
8705;BME280;4389;41.932;25.904;2023-02-19T00:01:27;100779.06;;;10.89;76.62
8705;BME280;4389;41.932;25.904;2023-02-19T00:03:57;100777.16;;;10.91;76.96
8705;BME280;4389;41.932;25.904;2023-02-19T00:06:26;100777.91;;;10.82;76.80
8705;BME280;4389;41.932;25.904;2023-02-19T00:08:53;100774.94;;;10.96;77.32
8705;BME280;4389;41.932;25.904;2023-02-19T00:11:22;100771.00;;;10.91;77.71
8705;BME280;4389;41.932;25.904;2023-02-19T00:13:52;100772.91;;;10.79;77.62
8705;BME280;4389;41.932;25.904;2023-02-19T00:16:22;100761.72;;;10.76;79.18
8705;BME280;4389;41.932;25.904;2023-02-19T00:18:49;100765.41;;;10.84;78.44
8705;BME280;4389;41.932;25.904;2023-02-19T00:21:17;100751.69;;;11.00;77.46
8705;BME280;4389;41.932;25.904;2023-02-19T00:23:47;100757.72;;;11.02;77.83
8705;BME280;4389;41.932;25.904;2023-02-19T00:26:15;100758.69;;;10.80;78.32
8705;BME280;4389;41.932;25.904;2023-02-19T00:28:41;100757.00;;;10.79;78.44
8705;BME280;4389;41.932;25.904;2023-02-19T00:31:15;100761.22;;;10.82;79.26
8705;BME280;4389;41.932;25.904;2023-02-19T00:33:42;100765.13;;;10.87;79.41
8705;BME280;4389;41.932;25.904;2023-02-19T00:36:09;100768.47;;;10.89;80.16
8705;BME280;4389;41.932;25.904;2023-02-19T00:38:36;100757.81;;;10.70;80.42
8705;BME280;4389;41.932;25.904;2023-02-19T00:41:04;100743.22;;;10.55;81.63
8705;BME280;4389;41.932;25.904;2023-02-19T00:43:44;100743.53;;;10.62;81.81
8705;BME280;4389;41.932;25.904;2023-02-19T00:46:12;100747.09;;;10.51;82.28
8705;BME280;4389;41.932;25.904;2023-02-19T00:48:39;100745.03;;;10.34;82.30
8705;BME280;4389;41.932;25.904;2023-02-19T00:51:06;100738.50;;;10.38;82.51
8705;BME280;4389;41.932;25.904;2023-02-19T00:53:33;100733.09;;;10.40;82.13
8705;BME280;4389;41.932;25.904;2023-02-19T00:56:00;100722.16;;;10.33;83.48
8705;BME280;4389;41.932;25.904;2023-02-19T00:58:27;100720.06;;;10.27;83.76
8705;BME280;4389;41.932;25.904;2023-02-19T01:00:53;100715.47;;;10.29;82.72
8705;BME280;4389;41.932;25.904;2023-02-19T01:03:22;100705.66;;;10.20;83.70
8705;BME280;4389;41.932;25.904;2023-02-19T01:05:49;100709.28;;;10.19;83.43
8705;BME280;4389;41.932;25.904;2023-02-19T01:08:17;100707.56;;;10.18;83.75
8705;BME280;4389;41.932;25.904;2023-02-19T01:10:44;100712.13;;;10.27;83.00
8705;BME280;4389;41.932;25.904;2023-02-19T01:13:11;100703.47;;;10.25;82.98
8705;BME280;4389;41.932;25.904;2023-02-19T01:15:38;100700.41;;;10.09;83.34
8705;BME280;4389;41.932;25.904;2023-02-19T01:18:05;100698.50;;;10.00;85.00
8705;BME280;4389;41.932;25.904;2023-02-19T01:20:33;100694.00;;;9.91;84.41
8705;BME280;4389;41.932;25.904;2023-02-19T01:23:00;100697.00;;;9.87;85.95
8705;BME280;4389;41.932;25.904;2023-02-19T01:25:27;100699.78;;;9.85;85.26
8705;BME280;4389;41.932;25.904;2023-02-19T01:27:54;100692.34;;;9.79;85.88
8705;BME280;4389;41.932;25.904;2023-02-19T01:30:20;100695.97;;;9.67;85.74
8705;BME280;4389;41.932;25.904;2023-02-19T01:32:47;100680.56;;;9.52;87.59
8705;BME280;4389;41.932;25.904;2023-02-19T01:35:14;100683.09;;;9.42;88.43
8705;BME280;4389;41.932;25.904;2023-02-19T01:37:42;100688.09;;;9.56;87.81
8705;BME280;4389;41.932;25.904;2023-02-19T01:40:10;100686.44;;;9.55;87.52
8705;BME280;4389;41.932;25.904;2023-02-19T01:42:41;100686.19;;;9.47;87.58
8705;BME280;4389;41.932;25.904;2023-02-19T01:45:21;100683.56;;;9.47;87.72
8705;BME280;4389;41.932;25.904;2023-02-19T01:47:53;100675.19;;;9.42;87.37
8705;BME280;4389;41.932;25.904;2023-02-19T01:50:22;100681.44;;;9.41;88.24
8705;BME280;4389;41.932;25.904;2023-02-19T01:52:50;100695.34;;;9.32;87.69
8705;BME280;4389;41.932;25.904;2023-02-19T01:55:18;100688.50;;;9.41;87.64
8705;BME280;4389;41.932;25.904;2023-02-19T01:57:49;100686.72;;;9.30;87.71
8705;BME280;4389;41.932;25.904;2023-02-19T02:00:19;100685.53;;;9.23;88.49
8705;BME280;4389;41.932;25.904;2023-02-19T02:02:48;100688.53;;;9.19;89.13
8705;BME280;4389;41.932;25.904;2023-02-19T02:05:23;100691.66;;;9.24;89.34
8705;BME280;4389;41.932;25.904;2023-02-19T02:07:51;100690.81;;;9.23;89.68
8705;BME280;4389;41.932;25.904;2023-02-19T02:10:36;100687.31;;;9.23;88.77
8705;BME280;4389;41.932;25.904;2023-02-19T02:13:02;100683.16;;;9.20;89.43
8705;BME280;4389;41.932;25.904;2023-02-19T02:15:37;100683.59;;;9.25;89.37
8705;BME280;4389;41.932;25.904;2023-02-19T02:18:11;100685.53;;;9.23;89.07
8705;BME280;4389;41.932;25.904;2023-02-19T02:20:57;100683.16;;;9.09;89.63
8705;BME280;4389;41.932;25.904;2023-02-19T02:23:38;100683.25;;;9.19;89.85
8705;BME280;4389;41.932;25.904;2023-02-19T02:26:12;100692.84;;;9.09;90.23
8705;BME280;4389;41.932;25.904;2023-02-19T02:32:09;100669.22;;;9.29;90.64
8705;BME280;4389;41.932;25.904;2023-02-19T02:34:43;100663.19;;;9.38;90.33
8705;BME280;4389;41.932;25.904;2023-02-19T02:37:12;100665.94;;;9.37;90.39
8705;BME280;4389;41.932;25.904;2023-02-19T02:39:41;100667.97;;;9.44;90.24
8705;BME280;4389;41.932;25.904;2023-02-19T02:42:09;100663.88;;;9.51;89.97
8705;BME280;4389;41.932;25.904;2023-02-19T02:44:50;100669.41;;;9.48;89.74
8705;BME280;4389;41.932;25.904;2023-02-19T02:47:35;100665.09;;;9.36;89.24
8705;BME280;4389;41.932;25.904;2023-02-19T02:50:08;100667.56;;;9.06;89.61
8705;BME280;4389;41.932;25.904;2023-02-19T02:52:39;100676.09;;;8.88;90.24
8705;BME280;4389;41.932;25.904;2023-02-19T02:55:29;100675.84;;;8.80;90.22
8705;BME280;4389;41.932;25.904;2023-02-19T02:57:56;100670.09;;;8.86;90.21
8705;BME280;4389;41.932;25.904;2023-02-19T03:00:24;100672.25;;;8.81;90.16
8705;BME280;4389;41.932;25.904;2023-02-19T03:03:14;100682.56;;;8.84;90.68
8705;BME280;4389;41.932;25.904;2023-02-19T03:05:43;100678.97;;;8.85;90.59
8705;BME280;4389;41.932;25.904;2023-02-19T03:08:22;100686.78;;;8.87;91.12
8705;BME280;4389;41.932;25.904;2023-02-19T03:10:53;100684.38;;;8.94;91.17
8705;BME280;4389;41.932;25.904;2023-02-19T03:13:26;100687.97;;;8.93;91.50
8705;BME280;4389;41.932;25.904;2023-02-19T03:16:14;100682.56;;;9.06;90.77
8705;BME280;4389;41.932;25.904;2023-02-19T03:19:03;100680.50;;;9.20;89.42
8705;BME280;4389;41.932;25.904;2023-02-19T03:21:50;100675.22;;;9.09;89.38
8705;BME280;4389;41.932;25.904;2023-02-19T03:24:21;100673.06;;;9.03;90.03
8705;BME280;4389;41.932;25.904;2023-02-19T03:27:07;100666.81;;;9.04;89.95
8705;BME280;4389;41.932;25.904;2023-02-19T03:29:36;100672.09;;;9.15;89.97
8705;BME280;4389;41.932;25.904;2023-02-19T03:32:08;100676.06;;;9.21;90.08
8705;BME280;4389;41.932;25.904;2023-02-19T03:34:43;100684.34;;;9.16;90.22
8705;BME280;4389;41.932;25.904;2023-02-19T03:37:14;100675.72;;;9.14;90.16
8705;BME280;4389;41.932;25.904;2023-02-19T03:39:42;100680.25;;;9.23;90.25
8705;BME280;4389;41.932;25.904;2023-02-19T03:42:18;100689.38;;;9.19;89.75
8705;BME280;4389;41.932;25.904;2023-02-19T03:44:55;100694.31;;;9.13;89.85
8705;BME280;4389;41.932;25.904;2023-02-19T03:47:29;100692.03;;;9.08;89.72
8705;BME280;4389;41.932;25.904;2023-02-19T03:50:02;100698.53;;;8.93;90.21
8705;BME280;4389;41.932;25.904;2023-02-19T03:52:37;100710.38;;;8.99;89.95
8705;BME280;4389;41.932;25.904;2023-02-19T03:55:09;100704.53;;;8.85;89.62
8705;BME280;4389;41.932;25.904;2023-02-19T03:57:43;100705.59;;;8.82;89.81
8705;BME280;4389;41.932;25.904;2023-02-19T04:00:16;100706.19;;;8.64;89.62
8705;BME280;4389;41.932;25.904;2023-02-19T04:02:47;100714.53;;;8.47;90.14
8705;BME280;4389;41.932;25.904;2023-02-19T04:05:20;100715.44;;;8.35;90.42
8705;BME280;4389;41.932;25.904;2023-02-19T04:07:49;100716.91;;;8.39;90.95
8705;BME280;4389;41.932;25.904;2023-02-19T04:10:18;100729.03;;;8.18;91.20
8705;BME280;4389;41.932;25.904;2023-02-19T04:12:50;100708.84;;;7.95;91.79
8705;BME280;4389;41.932;25.904;2023-02-19T04:15:21;100710.75;;;7.93;92.57
8705;BME280;4389;41.932;25.904;2023-02-19T04:17:54;100709.84;;;7.81;93.12
8705;BME280;4389;41.932;25.904;2023-02-19T04:20:26;100710.69;;;7.82;93.43
8705;BME280;4389;41.932;25.904;2023-02-19T04:22:55;100715.28;;;7.91;93.74
8705;BME280;4389;41.932;25.904;2023-02-19T04:25:25;100708.94;;;7.93;93.49
8705;BME280;4389;41.932;25.904;2023-02-19T04:27:53;100713.38;;;7.93;93.60
8705;BME280;4389;41.932;25.904;2023-02-19T04:30:20;100692.34;;;7.80;93.91
8705;BME280;4389;41.932;25.904;2023-02-19T04:32:47;100701.44;;;7.76;94.22
8705;BME280;4389;41.932;25.904;2023-02-19T04:35:13;100709.97;;;7.80;94.15
8705;BME280;4389;41.932;25.904;2023-02-19T04:37:42;100704.69;;;7.80;92.93
8705;BME280;4389;41.932;25.904;2023-02-19T04:40:09;100712.59;;;7.80;93.12
8705;BME280;4389;41.932;25.904;2023-02-19T04:42:36;100725.84;;;7.67;94.07
8705;BME280;4389;41.932;25.904;2023-02-19T04:45:03;100738.53;;;7.73;94.42
8705;BME280;4389;41.932;25.904;2023-02-19T04:47:30;100752.75;;;7.71;94.42
8705;BME280;4389;41.932;25.904;2023-02-19T04:49:57;100756.47;;;7.68;94.67
8705;BME280;4389;41.932;25.904;2023-02-19T04:52:24;100764.25;;;7.70;93.59
8705;BME280;4389;41.932;25.904;2023-02-19T04:54:52;100763.91;;;7.51;92.79
8705;BME280;4389;41.932;25.904;2023-02-19T04:57:19;100775.84;;;7.19;94.07
8705;BME280;4389;41.932;25.904;2023-02-19T04:59:46;100781.00;;;7.20;95.53
8705;BME280;4389;41.932;25.904;2023-02-19T05:02:13;100791.75;;;7.30;95.55
8705;BME280;4389;41.932;25.904;2023-02-19T05:04:40;100792.38;;;7.33;95.16
8705;BME280;4389;41.932;25.904;2023-02-19T05:07:07;100784.81;;;7.29;94.73
8705;BME280;4389;41.932;25.904;2023-02-19T05:09:34;100783.91;;;7.41;94.54
8705;BME280;4389;41.932;25.904;2023-02-19T05:12:02;100782.88;;;7.31;94.27
8705;BME280;4389;41.932;25.904;2023-02-19T05:14:29;100787.09;;;7.33;94.71
8705;BME280;4389;41.932;25.904;2023-02-19T05:16:56;100788.25;;;7.29;94.68
8705;BME280;4389;41.932;25.904;2023-02-19T05:19:22;100792.03;;;7.38;94.79
8705;BME280;4389;41.932;25.904;2023-02-19T05:21:49;100801.94;;;7.34;94.42
8705;BME280;4389;41.932;25.904;2023-02-19T05:24:16;100806.66;;;7.42;95.26
8705;BME280;4389;41.932;25.904;2023-02-19T05:26:43;100816.31;;;7.54;94.94
8705;BME280;4389;41.932;25.904;2023-02-19T05:29:11;100814.41;;;7.56;94.54
8705;BME280;4389;41.932;25.904;2023-02-19T05:31:38;100831.50;;;7.50;94.07
8705;BME280;4389;41.932;25.904;2023-02-19T05:34:04;100819.19;;;7.51;94.12
8705;BME280;4389;41.932;25.904;2023-02-19T05:36:31;100812.09;;;7.64;93.88
8705;BME280;4389;41.932;25.904;2023-02-19T05:38:58;100820.72;;;7.66;93.11
8705;BME280;4389;41.932;25.904;2023-02-19T05:41:27;100809.34;;;7.65;93.41
8705;BME280;4389;41.932;25.904;2023-02-19T05:43:54;100816.47;;;7.76;93.79
8705;BME280;4389;41.932;25.904;2023-02-19T05:46:25;100820.91;;;7.75;93.00
8705;BME280;4389;41.932;25.904;2023-02-19T05:48:53;100815.66;;;7.75;93.38
8705;BME280;4389;41.932;25.904;2023-02-19T05:51:22;100837.63;;;7.87;92.89
8705;BME280;4389;41.932;25.904;2023-02-19T05:53:50;100843.09;;;7.96;93.18
8705;BME280;4389;41.932;25.904;2023-02-19T05:56:25;100857.88;;;8.10;91.73
8705;BME280;4389;41.932;25.904;2023-02-19T05:58:53;100860.28;;;8.13;91.08
8705;BME280;4389;41.932;25.904;2023-02-19T06:01:24;100868.84;;;8.04;91.33
8705;BME280;4389;41.932;25.904;2023-02-19T06:03:51;100858.13;;;8.07;91.34
8705;BME280;4389;41.932;25.904;2023-02-19T06:06:18;100857.03;;;8.22;91.50
8705;BME280;4389;41.932;25.904;2023-02-19T06:08:47;100859.28;;;8.39;91.04
8705;BME280;4389;41.932;25.904;2023-02-19T06:11:14;100857.06;;;8.56;90.94
8705;BME280;4389;41.932;25.904;2023-02-19T06:13:41;100851.50;;;8.72;90.31
8705;BME280;4389;41.932;25.904;2023-02-19T06:16:08;100838.78;;;8.77;89.51
8705;BME280;4389;41.932;25.904;2023-02-19T06:18:37;100839.88;;;8.74;89.04
8705;BME280;4389;41.932;25.904;2023-02-19T06:21:06;100841.09;;;8.81;89.46
8705;BME280;4389;41.932;25.904;2023-02-19T06:23:33;100841.63;;;8.97;89.07
8705;BME280;4389;41.932;25.904;2023-02-19T06:26:07;100839.22;;;9.05;88.68
8705;BME280;4389;41.932;25.904;2023-02-19T06:28:36;100838.91;;;9.20;88.63
8705;BME280;4389;41.932;25.904;2023-02-19T06:31:03;100833.63;;;9.42;86.98
8705;BME280;4389;41.932;25.904;2023-02-19T06:33:30;100839.03;;;9.52;86.86
8705;BME280;4389;41.932;25.904;2023-02-19T06:35:59;100845.34;;;9.82;85.70
8705;BME280;4389;41.932;25.904;2023-02-19T06:38:27;100847.28;;;9.80;84.41
8705;BME280;4389;41.932;25.904;2023-02-19T06:40:58;100839.34;;;9.80;84.60
8705;BME280;4389;41.932;25.904;2023-02-19T06:43:25;100838.03;;;9.86;84.28
8705;BME280;4389;41.932;25.904;2023-02-19T06:45:52;100844.38;;;9.83;83.89
8705;BME280;4389;41.932;25.904;2023-02-19T06:48:19;100851.13;;;9.76;85.38
8705;BME280;4389;41.932;25.904;2023-02-19T06:50:49;100843.19;;;9.76;84.35
8705;BME280;4389;41.932;25.904;2023-02-19T06:53:17;100852.44;;;9.71;85.32
8705;BME280;4389;41.932;25.904;2023-02-19T06:55:44;100855.56;;;9.65;84.55
8705;BME280;4389;41.932;25.904;2023-02-19T06:58:20;100851.75;;;9.47;85.57
8705;BME280;4389;41.932;25.904;2023-02-19T07:00:47;100854.28;;;9.48;86.07
8705;BME280;4389;41.932;25.904;2023-02-19T07:03:14;100845.97;;;9.64;86.00
8705;BME280;4389;41.932;25.904;2023-02-19T07:05:40;100846.34;;;9.70;85.22
8705;BME280;4389;41.932;25.904;2023-02-19T07:08:08;100844.78;;;9.68;84.83
8705;BME280;4389;41.932;25.904;2023-02-19T07:10:36;100848.47;;;9.76;85.27
8705;BME280;4389;41.932;25.904;2023-02-19T07:13:03;100832.41;;;9.79;83.93
8705;BME280;4389;41.932;25.904;2023-02-19T07:15:30;100832.41;;;9.79;84.44
8705;BME280;4389;41.932;25.904;2023-02-19T07:17:57;100832.63;;;9.98;83.68
8705;BME280;4389;41.932;25.904;2023-02-19T07:20:25;100829.63;;;10.03;84.00
8705;BME280;4389;41.932;25.904;2023-02-19T07:22:52;100841.13;;;10.13;83.71
8705;BME280;4389;41.932;25.904;2023-02-19T07:25:18;100845.75;;;10.31;83.46
8705;BME280;4389;41.932;25.904;2023-02-19T07:27:47;100842.81;;;10.45;83.00
8705;BME280;4389;41.932;25.904;2023-02-19T07:30:14;100834.88;;;10.45;82.98
8705;BME280;4389;41.932;25.904;2023-02-19T07:32:41;100832.63;;;10.61;82.99
8705;BME280;4389;41.932;25.904;2023-02-19T07:35:09;100838.00;;;10.50;83.27
8705;BME280;4389;41.932;25.904;2023-02-19T07:37:36;100831.81;;;10.61;82.85
8705;BME280;4389;41.932;25.904;2023-02-19T07:40:04;100830.06;;;10.71;81.56
8705;BME280;4389;41.932;25.904;2023-02-19T07:42:31;100839.13;;;10.89;82.67
8705;BME280;4389;41.932;25.904;2023-02-19T07:45:00;100838.53;;;11.06;81.15
8705;BME280;4389;41.932;25.904;2023-02-19T07:47:28;100844.16;;;11.12;81.28
8705;BME280;4389;41.932;25.904;2023-02-19T07:49:55;100843.63;;;11.18;81.22
8705;BME280;4389;41.932;25.904;2023-02-19T07:52:22;100844.16;;;11.12;80.40
8705;BME280;4389;41.932;25.904;2023-02-19T07:54:49;100849.50;;;11.22;80.87
8705;BME280;4389;41.932;25.904;2023-02-19T07:57:16;100850.28;;;11.33;80.35
8705;BME280;4389;41.932;25.904;2023-02-19T07:59:42;100850.72;;;11.38;80.54
8705;BME280;4389;41.932;25.904;2023-02-19T08:02:14;100860.47;;;11.38;80.34
8705;BME280;4389;41.932;25.904;2023-02-19T08:04:59;100845.34;;;11.49;80.74
8705;BME280;4389;41.932;25.904;2023-02-19T08:07:30;100855.03;;;11.60;79.86
8705;BME280;4389;41.932;25.904;2023-02-19T08:09:57;100852.84;;;11.74;80.72
8705;BME280;4389;41.932;25.904;2023-02-19T08:12:54;100858.91;;;11.95;80.19
8705;BME280;4389;41.932;25.904;2023-02-19T08:15:38;100855.47;;;12.14;78.44
8705;BME280;4389;41.932;25.904;2023-02-19T08:18:07;100850.47;;;12.39;77.04
8705;BME280;4389;41.932;25.904;2023-02-19T08:20:34;100844.75;;;12.53;76.51
8705;BME280;4389;41.932;25.904;2023-02-19T08:23:01;100837.38;;;12.66;75.73
8705;BME280;4389;41.932;25.904;2023-02-19T08:25:28;100837.38;;;12.85;74.32
8705;BME280;4389;41.932;25.904;2023-02-19T08:27:55;100837.66;;;13.01;73.96
8705;BME280;4389;41.932;25.904;2023-02-19T08:30:21;100836.75;;;13.29;72.76
8705;BME280;4389;41.932;25.904;2023-02-19T08:32:48;100841.84;;;13.50;72.89
8705;BME280;4389;41.932;25.904;2023-02-19T08:35:16;100838.53;;;13.74;71.29
8705;BME280;4389;41.932;25.904;2023-02-19T08:37:43;100835.34;;;13.98;70.17
8705;BME280;4389;41.932;25.904;2023-02-19T08:40:11;100835.09;;;14.18;68.87
8705;BME280;4389;41.932;25.904;2023-02-19T08:42:38;100831.09;;;14.32;69.04
8705;BME280;4389;41.932;25.904;2023-02-19T08:45:05;100824.38;;;14.45;68.02
8705;BME280;4389;41.932;25.904;2023-02-19T08:47:33;100820.66;;;14.56;67.93
8705;BME280;4389;41.932;25.904;2023-02-19T08:50:01;100829.47;;;14.74;67.48
8705;BME280;4389;41.932;25.904;2023-02-19T08:52:30;100811.09;;;14.88;64.47
8705;BME280;4389;41.932;25.904;2023-02-19T08:54:57;100812.69;;;14.99;62.65
8705;BME280;4389;41.932;25.904;2023-02-19T08:57:25;100806.31;;;15.17;61.21
8705;BME280;4389;41.932;25.904;2023-02-19T08:59:53;100804.47;;;15.35;59.47
8705;BME280;4389;41.932;25.904;2023-02-19T09:02:20;100798.69;;;15.48;59.57
8705;BME280;4389;41.932;25.904;2023-02-19T09:04:47;100795.19;;;16.70;47.05
8705;BME280;4389;41.932;25.904;2023-02-19T09:07:14;100801.66;;;17.16;46.13
8705;BME280;4389;41.932;25.904;2023-02-19T09:09:43;100806.59;;;17.51;42.84
8705;BME280;4389;41.932;25.904;2023-02-19T09:12:11;100780.41;;;17.77;41.89
8705;BME280;4389;41.932;25.904;2023-02-19T09:14:39;100776.78;;;18.00;41.35
8705;BME280;4389;41.932;25.904;2023-02-19T09:17:07;100774.28;;;17.99;40.72
8705;BME280;4389;41.932;25.904;2023-02-19T09:19:34;100775.59;;;18.03;40.78
8705;BME280;4389;41.932;25.904;2023-02-19T09:22:02;100757.09;;;18.16;40.29
8705;BME280;4389;41.932;25.904;2023-02-19T09:24:29;100780.13;;;18.33;41.17
8705;BME280;4389;41.932;25.904;2023-02-19T09:26:57;100761.59;;;18.46;40.05
8705;BME280;4389;41.932;25.904;2023-02-19T09:29:25;100772.56;;;18.59;39.44
8705;BME280;4389;41.932;25.904;2023-02-19T09:31:56;100749.06;;;18.61;38.85
8705;BME280;4389;41.932;25.904;2023-02-19T09:34:24;100778.25;;;18.78;39.08
8705;BME280;4389;41.932;25.904;2023-02-19T09:36:51;100753.94;;;18.80;38.26
8705;BME280;4389;41.932;25.904;2023-02-19T09:39:18;100769.88;;;18.95;38.38
8705;BME280;4389;41.932;25.904;2023-02-19T09:41:48;100785.16;;;19.09;38.11
8705;BME280;4389;41.932;25.904;2023-02-19T09:44:20;100770.09;;;19.08;38.13
8705;BME280;4389;41.932;25.904;2023-02-19T09:46:50;100757.31;;;19.10;37.42
8705;BME280;4389;41.932;25.904;2023-02-19T09:49:20;100757.31;;;19.10;37.91
8705;BME280;4389;41.932;25.904;2023-02-19T09:51:54;100759.50;;;19.29;37.46
8705;BME280;4389;41.932;25.904;2023-02-19T09:54:23;100769.66;;;19.19;37.27
8705;BME280;4389;41.932;25.904;2023-02-19T09:56:52;100763.84;;;19.30;37.02
8705;BME280;4389;41.932;25.904;2023-02-19T09:59:24;100747.63;;;19.24;37.02
8705;BME280;4389;41.932;25.904;2023-02-19T10:01:56;100756.53;;;19.24;36.62
8705;BME280;4389;41.932;25.904;2023-02-19T10:04:26;100748.56;;;19.45;36.31
8705;BME280;4389;41.932;25.904;2023-02-19T10:06:55;100746.41;;;19.55;35.83
8705;BME280;4389;41.932;25.904;2023-02-19T10:09:28;100725.50;;;19.65;36.37
8705;BME280;4389;41.932;25.904;2023-02-19T10:11:57;100732.34;;;19.68;36.04
8705;BME280;4389;41.932;25.904;2023-02-19T10:14:29;100717.69;;;19.70;35.74
8705;BME280;4389;41.932;25.904;2023-02-19T10:17:03;100725.09;;;19.68;35.92
8705;BME280;4389;41.932;25.904;2023-02-19T10:19:31;100714.81;;;19.72;36.31
8705;BME280;4389;41.932;25.904;2023-02-19T10:21:59;100719.88;;;19.81;36.43
8705;BME280;4389;41.932;25.904;2023-02-19T10:24:29;100705.44;;;19.82;36.37
8705;BME280;4389;41.932;25.904;2023-02-19T10:26:56;100701.03;;;19.96;36.22
8705;BME280;4389;41.932;25.904;2023-02-19T10:29:23;100705.47;;;20.03;36.11
8705;BME280;4389;41.932;25.904;2023-02-19T10:32:15;100690.00;;;20.05;36.03
8705;BME280;4389;41.932;25.904;2023-02-19T10:34:45;100670.16;;;20.06;35.58
8705;BME280;4389;41.932;25.904;2023-02-19T10:37:14;100675.91;;;20.03;35.38
8705;BME280;4389;41.932;25.904;2023-02-19T10:39:43;100688.03;;;20.14;34.89
8705;BME280;4389;41.932;25.904;2023-02-19T10:42:15;100670.28;;;20.19;35.12
8705;BME280;4389;41.932;25.904;2023-02-19T10:44:45;100678.34;;;20.19;34.80
8705;BME280;4389;41.932;25.904;2023-02-19T10:47:20;100662.97;;;20.34;34.68
8705;BME280;4389;41.932;25.904;2023-02-19T10:49:48;100661.00;;;20.43;34.62
8705;BME280;4389;41.932;25.904;2023-02-19T10:52:19;100660.06;;;20.29;34.72
8705;BME280;4389;41.932;25.904;2023-02-19T10:54:49;100645.69;;;20.43;35.20
8705;BME280;4389;41.932;25.904;2023-02-19T10:57:37;100631.78;;;20.67;35.41
8705;BME280;4389;41.932;25.904;2023-02-19T11:00:19;100631.34;;;20.57;34.27
8705;BME280;4389;41.932;25.904;2023-02-19T11:02:48;100630.94;;;20.60;35.06
8705;BME280;4389;41.932;25.904;2023-02-19T11:05:18;100626.59;;;20.66;34.61
8705;BME280;4389;41.932;25.904;2023-02-19T11:07:47;100636.13;;;20.62;34.61
8705;BME280;4389;41.932;25.904;2023-02-19T11:10:25;100619.28;;;20.53;34.43
8705;BME280;4389;41.932;25.904;2023-02-19T11:12:55;100622.00;;;20.60;34.63
8705;BME280;4389;41.932;25.904;2023-02-19T11:15:25;100612.28;;;20.59;34.40
8705;BME280;4389;41.932;25.904;2023-02-19T11:17:56;100602.84;;;20.69;34.90
8705;BME280;4389;41.932;25.904;2023-02-19T11:20:23;100606.63;;;20.81;34.45
8705;BME280;4389;41.932;25.904;2023-02-19T11:22:50;100601.13;;;20.89;34.67
8705;BME280;4389;41.932;25.904;2023-02-19T11:25:19;100597.66;;;20.95;33.77
8705;BME280;4389;41.932;25.904;2023-02-19T11:27:57;100608.06;;;21.11;33.67
8705;BME280;4389;41.932;25.904;2023-02-19T11:30:36;100603.47;;;21.05;33.37
8705;BME280;4389;41.932;25.904;2023-02-19T11:33:19;100605.19;;;21.13;33.60
8705;BME280;4389;41.932;25.904;2023-02-19T11:35:49;100598.69;;;20.94;33.80
8705;BME280;4389;41.932;25.904;2023-02-19T11:38:17;100598.56;;;21.15;33.29
8705;BME280;4389;41.932;25.904;2023-02-19T11:40:50;100611.00;;;21.16;32.80
8705;BME280;4389;41.932;25.904;2023-02-19T11:43:35;100603.94;;;21.15;33.16
8705;BME280;4389;41.932;25.904;2023-02-19T11:46:08;100598.44;;;21.36;32.97
8705;BME280;4389;41.932;25.904;2023-02-19T11:48:47;100594.13;;;21.55;32.73
8705;BME280;4389;41.932;25.904;2023-02-19T11:51:31;100594.13;;;21.55;33.04
8705;BME280;4389;41.932;25.904;2023-02-19T11:54:15;100585.88;;;21.56;32.71
8705;BME280;4389;41.932;25.904;2023-02-19T11:56:47;100581.69;;;21.47;32.37
8705;BME280;4389;41.932;25.904;2023-02-19T11:59:22;100586.63;;;21.37;31.81
8705;BME280;4389;41.932;25.904;2023-02-19T12:02:15;100573.78;;;21.33;32.02
8705;BME280;4389;41.932;25.904;2023-02-19T12:05:12;100565.91;;;21.31;32.76
8705;BME280;4389;41.932;25.904;2023-02-19T12:10:58;100563.91;;;21.59;31.85
8705;BME280;4389;41.932;25.904;2023-02-19T12:13:55;100559.31;;;21.47;32.21
8705;BME280;4389;41.932;25.904;2023-02-19T12:16:30;100555.59;;;21.54;32.29
8705;BME280;4389;41.932;25.904;2023-02-19T12:19:13;100550.06;;;21.69;32.22
8705;BME280;4389;41.932;25.904;2023-02-19T12:22:05;100556.69;;;21.66;32.17
8705;BME280;4389;41.932;25.904;2023-02-19T12:25:14;100544.41;;;21.57;32.18
8705;BME280;4389;41.932;25.904;2023-02-19T12:27:51;100537.81;;;21.66;32.16
8705;BME280;4389;41.932;25.904;2023-02-19T12:30:48;100537.41;;;21.82;31.96
8705;BME280;4389;41.932;25.904;2023-02-19T12:33:56;100535.75;;;21.81;31.47
8705;BME280;4389;41.932;25.904;2023-02-19T12:36:36;100533.91;;;21.82;32.41
8705;BME280;4389;41.932;25.904;2023-02-19T12:39:14;100526.22;;;21.72;32.89
8705;BME280;4389;41.932;25.904;2023-02-19T12:41:48;100526.44;;;21.84;32.92
8705;BME280;4389;41.932;25.904;2023-02-19T12:44:23;100519.59;;;21.88;32.84
8705;BME280;4389;41.932;25.904;2023-02-19T12:46:55;100519.38;;;21.76;32.15
8705;BME280;4389;41.932;25.904;2023-02-19T12:49:26;100515.63;;;21.64;32.95
8705;BME280;4389;41.932;25.904;2023-02-19T12:51:57;100510.88;;;21.66;33.36
8705;BME280;4389;41.932;25.904;2023-02-19T12:54:30;100506.34;;;21.73;32.48
8705;BME280;4389;41.932;25.904;2023-02-19T12:57:03;100509.66;;;21.88;32.73
8705;BME280;4389;41.932;25.904;2023-02-19T12:59:33;100500.94;;;21.99;31.95
8705;BME280;4389;41.932;25.904;2023-02-19T13:02:06;100508.38;;;21.97;31.54
8705;BME280;4389;41.932;25.904;2023-02-19T13:04:41;100506.72;;;21.96;31.27
8705;BME280;4389;41.932;25.904;2023-02-19T13:07:14;100501.16;;;21.78;32.04
8705;BME280;4389;41.932;25.904;2023-02-19T13:09:47;100501.16;;;21.78;32.18
8705;BME280;4389;41.932;25.904;2023-02-19T13:12:20;100507.16;;;21.80;32.23
8705;BME280;4389;41.932;25.904;2023-02-19T13:14:53;100496.16;;;21.88;32.18
8705;BME280;4389;41.932;25.904;2023-02-19T13:17:26;100492.66;;;21.81;32.01
8705;BME280;4389;41.932;25.904;2023-02-19T13:19:57;100498.03;;;21.94;32.44
8705;BME280;4389;41.932;25.904;2023-02-19T13:22:31;100490.75;;;21.95;32.45
8705;BME280;4389;41.932;25.904;2023-02-19T13:25:19;100491.38;;;21.90;32.75
8705;BME280;4389;41.932;25.904;2023-02-19T13:27:56;100483.31;;;21.77;33.12
8705;BME280;4389;41.932;25.904;2023-02-19T13:30:36;100482.50;;;21.77;32.89
8705;BME280;4389;41.932;25.904;2023-02-19T13:33:20;100471.91;;;21.75;33.13